Time;durP1;ratioP1;P1;durP2;ratioP2;P2;SDS_P1;SDS_P2;PMS_P1;PMS_P2;Temp;Humidity;BMP_temperature;BMP_pressure;BME280_temperature;BME280_humidity;BME280_pressure;Samples;Min_cycle;Max_cycle;Signal;HPM_P1;HPM_P2
2022/12/22 03:26:56;;;;;;;5.93;3.10;;;;;;;9.99;83.68;99778.81;4174194;28;20052;-74
2022/12/22 03:28:59;;;;;;;8.25;3.17;;;;;;;10.02;84.18;99771.94;4181505;28;20059;-74
2022/12/22 03:31:04;;;;;;;6.18;3.17;;;;;;;10.07;84.54;99769.34;4181505;28;20087;-75
2022/12/22 03:33:08;;;;;;;5.75;3.35;;;;;;;10.07;83.68;99771.94;4176795;28;20044;-74
2022/12/22 03:35:11;;;;;;;6.07;3.45;;;;;;;10.10;84.02;99767.66;4179506;28;20037;-75
2022/12/22 03:37:14;;;;;;;8.30;3.00;;;;;;;10.09;83.46;99755.53;4176672;28;20033;-75
2022/12/22 03:39:17;;;;;;;7.07;2.80;;;;;;;10.08;83.20;99756.38;4171369;28;20067;-75
2022/12/22 03:48:25;;;;;;;5.65;2.47;;;;;;;10.04;83.83;99743.38;4177864;28;20051;-75
2022/12/22 03:50:28;;;;;;;6.13;2.47;;;;;;;10.04;83.57;99743.38;4180943;28;20044;-75
2022/12/22 03:52:31;;;;;;;5.57;2.53;;;;;;;10.03;84.14;99752.91;4176933;28;20033;-75
2022/12/22 03:54:34;;;;;;;5.45;3.05;;;;;;;10.09;84.02;99737.34;4179145;28;20120;-75
2022/12/22 03:56:38;;;;;;;5.85;3.10;;;;;;;10.09;84.31;99742.53;4166609;28;20099;-75
2022/12/22 03:58:40;;;;;;;7.13;2.35;;;;;;;10.05;83.63;99734.72;4177145;28;20106;-75
2022/12/22 04:00:43;;;;;;;5.63;2.45;;;;;;;10.12;83.73;99734.75;4179206;28;20049;-75
2022/12/22 04:02:46;;;;;;;7.13;3.28;;;;;;;10.20;83.31;99729.59;4178541;28;20443;-74
2022/12/22 04:04:51;;;;;;;4.53;2.10;;;;;;;10.13;83.49;99718.31;4178894;28;20055;-75
2022/12/22 04:06:54;;;;;;;5.38;2.90;;;;;;;10.15;83.02;99720.94;4177929;28;20411;-75
2022/12/22 04:08:57;;;;;;;11.80;2.65;;;;;;;10.12;83.13;99718.31;4171250;28;20396;-75
2022/12/22 04:13:20;;;;;;;7.47;2.38;;;;;;;10.14;83.33;99724.38;4171248;28;20086;-74
2022/12/22 04:15:25;;;;;;;6.03;2.83;;;;;;;10.16;82.70;99721.78;4161900;28;20080;-74
2022/12/22 04:17:27;;;;;;;3.90;2.00;;;;;;;10.20;83.40;99731.31;4169333;28;20087;-75
2022/12/22 04:19:30;;;;;;;5.30;2.30;;;;;;;10.20;83.32;99732.19;4177401;28;20044;-75
2022/12/22 04:21:35;;;;;;;4.25;2.15;;;;;;;10.24;82.60;99722.69;4155308;28;20427;-74
2022/12/22 04:23:38;;;;;;;4.65;2.08;;;;;;;10.33;82.89;99714.06;4170333;28;20128;-74
2022/12/22 04:25:40;;;;;;;6.78;2.28;;;;;;;10.31;82.95;99711.47;4171401;28;20038;-74
2022/12/22 04:27:43;;;;;;;6.20;2.20;;;;;;;10.21;83.70;99709.69;4177068;28;20060;-74
2022/12/22 04:29:46;;;;;;;6.03;1.90;;;;;;;10.22;83.46;99709.69;4180377;28;20037;-75
2022/12/22 04:31:49;;;;;;;5.57;2.28;;;;;;;10.20;83.74;99698.41;4175526;28;20502;-75
2022/12/22 04:33:52;;;;;;;4.45;2.35;;;;;;;10.26;83.54;99700.16;4176956;28;20052;-74
2022/12/22 04:35:55;;;;;;;3.58;1.67;;;;;;;10.25;84.06;99709.72;4173799;28;20045;-74
2022/12/22 04:37:59;;;;;;;4.50;2.05;;;;;;;10.22;83.66;99711.41;4177366;28;20503;-76
2022/12/22 04:40:02;;;;;;;6.70;1.92;;;;;;;10.24;84.42;99699.31;4178968;28;20573;-74
2022/12/22 04:42:05;;;;;;;5.30;1.92;;;;;;;10.17;84.71;99702.75;4175670;28;20041;-74
2022/12/22 04:44:39;;;;;;;5.80;2.53;;;;;;;10.32;84.20;99692.38;4170259;28;20073;-76
2022/12/22 04:46:41;;;;;;;6.72;1.60;;;;;;;10.14;85.13;99694.06;4168481;28;20486;-76
2022/12/22 04:48:44;;;;;;;5.43;1.92;;;;;;;10.37;84.54;99682.06;4171697;28;20450;-76
2022/12/22 04:50:50;;;;;;;5.20;1.90;;;;;;;10.27;84.92;99687.19;4170601;28;20581;-72
2022/12/22 04:52:53;;;;;;;4.20;2.13;;;;;;;10.28;84.24;99685.47;4176240;28;20056;-71
2022/12/22 04:54:58;;;;;;;6.60;1.98;;;;;;;10.25;84.50;99675.03;4180847;28;20438;-71
2022/12/22 04:57:01;;;;;;;6.22;2.00;;;;;;;10.20;85.41;99676.78;4181807;28;20526;-71
2022/12/22 04:59:04;;;;;;;7.13;1.90;;;;;;;10.22;84.89;99690.63;4176321;28;20411;-72
2022/12/22 05:01:15;;;;;;;4.13;1.73;;;;;;;10.33;84.68;99672.50;4176008;28;20037;-71
2022/12/22 05:03:18;;;;;;;3.65;1.60;;;;;;;10.36;85.27;99677.72;4168197;28;20053;-72
2022/12/22 05:05:21;;;;;;;5.50;1.55;;;;;;;10.27;85.51;99673.34;4176264;28;20652;-71
2022/12/22 05:07:23;;;;;;;5.45;1.50;;;;;;;10.20;85.46;99676.78;4167940;28;20048;-71
2022/12/22 05:09:26;;;;;;;3.72;1.50;;;;;;;10.16;85.42;99670.69;4171984;28;20049;-73
2022/12/22 05:11:30;;;;;;;3.60;1.55;;;;;;;10.12;85.87;99679.38;4180806;28;20094;-73
2022/12/22 05:13:33;;;;;;;3.38;1.33;;;;;;;10.18;86.46;99665.50;4175131;28;20037;-77
2022/12/22 05:15:36;;;;;;;5.60;1.40;;;;;;;10.11;86.30;99678.47;4169773;28;20044;-77
2022/12/22 05:17:39;;;;;;;6.22;1.50;;;;;;;10.30;85.91;99678.53;4168453;28;20044;-70
2022/12/22 05:19:42;;;;;;;4.60;1.60;;;;;;;10.36;85.91;99664.72;4171177;28;20045;-68
2022/12/22 05:21:45;;;;;;;1.80;1.02;;;;;;;10.21;85.88;99668.13;4171215;28;20434;-68
2022/12/22 05:23:48;;;;;;;3.92;1.27;;;;;;;10.21;86.38;99670.72;4156529;28;20049;-68
2022/12/22 05:25:51;;;;;;;4.53;1.50;;;;;;;10.22;87.08;99670.75;4180304;28;20453;-68
2022/12/22 05:27:55;;;;;;;5.40;1.52;;;;;;;10.29;86.05;99669.88;4176087;28;20051;-68
2022/12/22 05:29:58;;;;;;;3.95;1.60;;;;;;;10.29;85.92;99669.00;4175786;28;20483;-68
2022/12/22 05:32:01;;;;;;;4.60;1.33;;;;;;;10.35;86.48;99668.19;4175162;28;20034;-68
2022/12/22 05:34:04;;;;;;;3.85;1.60;;;;;;;10.31;86.58;99665.56;4173718;28;20053;-69
2022/12/22 05:36:07;;;;;;;5.53;1.63;;;;;;;10.27;85.88;99661.22;4179654;28;20453;-68
2022/12/22 05:38:10;;;;;;;10.05;1.92;;;;;;;10.26;86.28;99667.25;4164249;28;20044;-68
2022/12/22 05:40:14;;;;;;;5.57;1.80;;;;;;;10.33;85.87;99659.50;4178000;28;20040;-68
2022/12/22 05:42:34;;;;;;;6.30;2.15;;;;;;;10.33;86.80;99668.16;4183175;28;20099;-68
2022/12/22 05:44:38;;;;;;;6.10;1.98;;;;;;;10.38;85.75;99663.00;4181398;28;20477;-68
2022/12/22 05:46:41;;;;;;;9.70;2.22;;;;;;;10.43;85.66;99669.94;4183162;28;20033;-68
2022/12/22 05:48:44;;;;;;;7.82;1.65;;;;;;;10.48;85.04;99670.84;4173305;28;20082;-68
2022/12/22 05:50:47;;;;;;;7.65;1.77;;;;;;;10.44;85.60;99668.19;4176689;28;20098;-70
2022/12/22 05:52:50;;;;;;;8.80;2.10;;;;;;;10.50;85.27;99654.34;4174724;28;20045;-69
2022/12/22 05:54:53;;;;;;;6.50;2.40;;;;;;;10.51;85.43;99650.91;4181068;28;20123;-69
2022/12/22 05:56:56;;;;;;;6.72;1.60;;;;;;;10.53;84.88;99647.44;4178223;28;20102;-69
2022/12/22 05:58:59;;;;;;;9.55;2.20;;;;;;;10.46;84.94;99654.34;4182749;28;20120;-69
2022/12/22 06:01:04;;;;;;;3.90;1.42;;;;;;;10.47;85.58;99656.09;4182212;28;20041;-69
2022/12/22 06:03:06;;;;;;;;;;;;;;;10.42;85.13;99647.41;4182578;28;20476;-69
2022/12/22 06:05:11;;;;;;;7.30;2.10;;;;;;;10.41;85.65;99661.28;4177933;28;19975;-69
2022/12/22 06:07:15;;;;;;;4.43;1.55;;;;;;;10.43;84.94;99650.91;4167169;28;20052;-69
2022/12/22 06:09:18;;;;;;;3.17;1.30;;;;;;;10.51;84.42;99662.16;4182622;28;20136;-69
2022/12/22 06:11:21;;;;;;;5.53;2.10;;;;;;;10.62;84.39;99654.38;4182564;28;20090;-69
2022/12/22 06:13:24;;;;;;;5.60;1.60;;;;;;;10.47;84.08;99656.09;4182335;28;20052;-69
2022/12/22 06:15:26;;;;;;;6.57;2.10;;;;;;;10.48;84.76;99660.44;4181106;28;20080;-69
2022/12/22 06:17:31;;;;;;;5.97;1.50;;;;;;;10.44;84.80;99661.28;4182593;28;20041;-69
2022/12/22 06:19:33;;;;;;;10.43;2.40;;;;;;;10.47;85.24;99648.28;4182524;28;20049;-68
2022/12/22 06:21:36;;;;;;;6.95;2.08;;;;;;;10.34;84.53;99653.44;4166800;28;20051;-69
2022/12/22 06:23:39;;;;;;;6.55;1.65;;;;;;;10.34;84.74;99646.53;4180585;28;20118;-69
2022/12/22 06:25:42;;;;;;;6.25;1.83;;;;;;;10.35;84.78;99653.44;4182496;28;20040;-69
2022/12/22 06:27:45;;;;;;;8.68;1.80;;;;;;;10.35;85.71;99661.25;4182542;28;20041;-69
2022/12/22 06:29:48;;;;;;;7.65;2.08;;;;;;;10.41;85.56;99639.63;4181283;28;20107;-69
2022/12/22 06:31:51;;;;;;;8.23;2.33;;;;;;;10.46;84.97;99643.97;4182227;28;20049;-69
2022/12/22 06:33:55;;;;;;;6.07;1.90;;;;;;;10.40;84.74;99653.50;4179401;28;20076;-69
2022/12/22 06:35:58;;;;;;;5.47;1.95;;;;;;;10.45;84.83;99655.25;4190995;28;20578;-69
2022/12/22 06:38:01;;;;;;;7.30;1.90;;;;;;;10.53;85.21;99646.56;4182097;28;20094;-69
2022/12/22 06:40:05;;;;;;;7.40;2.45;;;;;;;10.59;84.88;99647.44;4177349;28;20401;-69
2022/12/22 06:44:30;;;;;;;6.88;1.67;;;;;;;10.41;85.57;99644.81;4179033;28;20033;-69
2022/12/22 06:46:32;;;;;;;5.28;1.88;;;;;;;10.44;84.95;99644.81;4180879;28;20039;-69
2022/12/22 06:48:35;;;;;;;5.53;1.98;;;;;;;10.47;85.61;99656.09;4165651;28;20060;-69
2022/12/22 06:50:40;;;;;;;7.32;1.73;;;;;;;10.46;84.60;99656.94;4165600;28;20037;-69
2022/12/22 06:52:43;;;;;;;9.05;1.95;;;;;;;10.52;84.48;99647.44;4165496;28;20408;-70
2022/12/22 06:54:46;;;;;;;10.18;2.30;;;;;;;10.58;84.89;99652.63;4165142;28;20037;-69
2022/12/22 06:56:49;;;;;;;6.28;2.08;;;;;;;10.54;84.73;99648.28;4165990;28;20049;-69
2022/12/22 06:58:51;;;;;;;6.47;1.73;;;;;;;10.56;84.06;99638.78;4174770;28;20044;-69
2022/12/22 07:00:55;;;;;;;4.20;1.55;;;;;;;10.45;84.24;99644.84;4173005;28;20037;-68
2022/12/22 07:02:58;;;;;;;9.23;1.92;;;;;;;10.34;84.88;99643.94;4173848;28;20033;-69
2022/12/22 07:05:02;;;;;;;6.43;1.75;;;;;;;10.39;85.42;99656.94;4177707;28;20502;-68
2022/12/22 07:07:06;;;;;;;12.45;2.85;;;;;;;10.52;85.04;99655.25;4175664;28;20053;-69
2022/12/22 07:09:09;;;;;;;8.10;2.10;;;;;;;10.36;85.56;99663.00;4180547;28;20095;-69
2022/12/22 07:11:13;;;;;;;7.93;1.92;;;;;;;10.48;85.11;99655.25;4165316;28;20037;-69
2022/12/22 07:13:19;;;;;;;10.50;2.13;;;;;;;10.40;85.07;99669.09;4169401;28;20590;-69
2022/12/22 07:15:22;;;;;;;9.23;2.08;;;;;;;10.48;84.43;99663.03;4180377;28;20557;-69
2022/12/22 07:17:25;;;;;;;11.05;3.20;;;;;;;10.60;84.24;99667.38;4181695;28;20044;-69
2022/12/22 07:19:27;;;;;;;9.95;2.15;;;;;;;10.46;84.31;99677.75;4180515;28;20064;-69
2022/12/22 07:21:30;;;;;;;11.05;2.38;;;;;;;10.53;84.12;99680.34;4178862;28;20033;-68
2022/12/22 07:23:35;;;;;;;12.25;2.60;;;;;;;10.52;84.04;99679.47;4164850;28;20120;-68
2022/12/22 07:25:38;;;;;;;12.25;2.38;;;;;;;10.53;84.81;99683.81;4165087;28;20030;-69
2022/12/22 07:27:42;;;;;;;5.75;1.80;;;;;;;10.60;84.12;99677.78;4164999;28;20045;-68
2022/12/22 07:29:44;;;;;;;10.45;2.55;;;;;;;10.57;83.95;99677.78;4164161;28;20077;-68
2022/12/22 07:31:48;;;;;;;8.50;2.10;;;;;;;10.53;84.22;99690.72;4164892;28;20045;-68
2022/12/22 07:33:51;;;;;;;6.68;1.58;;;;;;;10.54;83.48;99690.78;4164571;28;20576;-68
2022/12/22 07:36:02;;;;;;;9.68;2.20;;;;;;;10.53;84.23;99685.53;4151360;28;20042;-68
2022/12/22 07:38:05;;;;;;;9.00;2.10;;;;;;;10.52;83.31;99697.69;4181210;28;20495;-68
2022/12/22 07:40:10;;;;;;;11.90;3.08;;;;;;;10.52;83.93;99689.88;4181334;28;20068;-68
2022/12/22 07:44:33;;;;;;;10.15;2.45;;;;;;;10.51;83.64;99702.88;4180853;28;20037;-68
2022/12/22 07:46:38;;;;;;;8.10;2.85;;;;;;;10.57;82.72;99695.09;4180886;28;20044;-68
2022/12/22 07:51:04;;;;;;;7.57;2.10;;;;;;;10.55;83.01;99689.88;4181166;28;20048;-68
2022/12/22 07:53:06;;;;;;;7.80;2.45;;;;;;;10.61;83.31;99694.22;4179678;28;20454;-68
2022/12/22 07:55:11;;;;;;;5.68;1.90;;;;;;;10.60;82.27;99680.38;4163100;28;20412;-68
2022/12/22 07:57:13;;;;;;;11.93;2.42;;;;;;;10.57;82.04;99685.56;4181033;28;20102;-68
2022/12/22 07:59:16;;;;;;;8.98;3.70;;;;;;;10.61;81.90;99689.88;4179468;28;20041;-69
2022/12/22 08:01:19;;;;;;;9.63;2.28;;;;;;;10.62;80.52;99690.78;4175638;28;20071;-68
2022/12/22 08:03:22;;;;;;;5.85;1.75;;;;;;;10.68;80.21;99695.13;4178644;28;20060;-68
2022/12/22 08:05:25;;;;;;;10.95;2.10;;;;;;;10.68;80.55;99679.53;4190333;28;20048;-68
2022/12/22 08:07:28;;;;;;;14.45;2.65;;;;;;;10.70;80.17;99689.03;4176588;28;20040;-68
2022/12/22 08:09:31;;;;;;;9.82;2.10;;;;;;;10.81;79.67;99684.72;4177340;28;20033;-68
2022/12/22 08:11:36;;;;;;;12.10;2.35;;;;;;;10.92;80.09;99684.75;4178527;28;20041;-68
2022/12/22 08:13:38;;;;;;;9.18;2.95;;;;;;;10.86;79.30;99684.72;4179353;28;20029;-68
2022/12/22 08:15:41;;;;;;;10.38;2.08;;;;;;;10.92;79.45;99689.06;4175222;28;20033;-68
2022/12/22 08:17:44;;;;;;;12.68;2.40;;;;;;;10.96;78.35;99696.84;4179567;28;20037;-68
2022/12/22 08:19:48;;;;;;;7.65;2.53;;;;;;;11.11;78.34;99688.19;4171290;28;20132;-68
2022/12/22 08:21:51;;;;;;;8.38;1.95;;;;;;;11.03;78.98;99695.13;4175445;28;20094;-68
2022/12/22 08:23:55;;;;;;;7.05;2.25;;;;;;;11.03;78.57;99694.28;4173920;28;20098;-68
2022/12/22 08:26:04;;;;;;;6.68;2.05;;;;;;;11.05;78.85;99695.13;4180106;28;20087;-68
2022/12/22 08:28:08;;;;;;;7.97;1.83;;;;;;;11.02;79.44;99693.38;4164229;28;20438;-68
2022/12/22 08:30:12;;;;;;;10.80;2.28;;;;;;;11.05;78.81;99701.19;4146572;28;20050;-68
2022/12/22 08:32:16;;;;;;;11.60;2.10;;;;;;;11.06;78.82;99692.53;4162756;28;20050;-68
2022/12/22 08:34:19;;;;;;;9.93;2.22;;;;;;;11.03;78.36;99702.94;4162492;28;20503;-68
2022/12/22 08:36:22;;;;;;;7.07;1.80;;;;;;;11.06;79.07;99697.72;4165886;28;20041;-69
2022/12/22 08:38:25;;;;;;;9.73;2.13;;;;;;;11.05;78.75;99693.38;4173891;28;20095;-68
2022/12/22 08:40:31;;;;;;;10.65;2.60;;;;;;;11.09;78.09;99697.72;4162793;28;20561;-69
2022/12/22 08:42:34;;;;;;;13.18;3.35;;;;;;;11.14;78.58;99690.81;4146387;28;20053;-68
2022/12/22 08:44:38;;;;;;;11.18;2.75;;;;;;;11.18;78.71;99691.66;4163673;28;20041;-69
2022/12/22 08:46:41;;;;;;;11.57;2.00;;;;;;;11.15;77.93;99696.84;4162823;28;20033;-69
2022/12/22 08:48:45;;;;;;;10.63;2.25;;;;;;;11.24;77.92;99690.78;4162888;28;20091;-69
2022/12/22 08:50:48;;;;;;;10.02;2.40;;;;;;;11.20;77.41;99686.44;4162703;28;20037;-69
2022/12/22 08:52:51;;;;;;;14.73;2.85;;;;;;;11.21;78.14;99691.66;4163885;28;20125;-68
2022/12/22 08:54:54;;;;;;;7.90;2.47;;;;;;;11.23;77.95;99694.25;4147721;28;20058;-69
2022/12/22 08:56:57;;;;;;;12.15;2.50;;;;;;;11.16;78.36;99693.41;4180305;28;20045;-68
2022/12/22 08:59:03;;;;;;;11.10;2.37;;;;;;;11.14;78.12;99693.41;4180474;28;20402;-69
2022/12/22 09:01:08;;;;;;;14.52;3.28;;;;;;;11.17;78.33;99692.53;4180421;28;20056;-69
2022/12/22 09:03:11;;;;;;;8.57;2.92;;;;;;;11.24;78.24;99691.63;4178953;28;20048;-68
2022/12/22 09:05:14;;;;;;;12.82;2.35;;;;;;;11.31;77.58;99697.72;4178893;28;20041;-68
2022/12/22 09:07:21;;;;;;;13.80;2.50;;;;;;;11.28;78.11;99695.13;4179237;28;20585;-69
2022/12/22 09:09:25;;;;;;;8.50;2.50;;;;;;;11.27;77.79;99695.97;4179229;28;20051;-69
2022/12/22 09:11:28;;;;;;;11.73;2.83;;;;;;;11.26;78.39;99694.28;4180313;28;20115;-68
2022/12/22 09:13:31;;;;;;;10.15;2.15;;;;;;;11.30;78.24;99693.38;4179048;28;20073;-68
2022/12/22 09:15:34;;;;;;;15.98;3.42;;;;;;;11.32;78.15;99696.84;4179777;28;20115;-68
2022/12/22 09:17:38;;;;;;;15.85;3.45;;;;;;;11.29;78.18;99699.47;4180042;28;20491;-68
2022/12/22 09:19:41;;;;;;;10.40;3.20;;;;;;;11.20;77.54;99696.84;4180180;28;20065;-68
2022/12/22 09:21:44;;;;;;;8.90;2.08;;;;;;;11.31;77.18;99697.72;4179260;28;20045;-68
2022/12/22 09:23:48;;;;;;;8.80;2.35;;;;;;;11.29;77.21;99707.28;4171761;28;20144;-68
2022/12/22 09:25:51;;;;;;;13.48;3.72;;;;;;;11.34;77.13;99701.16;4170835;28;20617;-68
2022/12/22 09:27:54;;;;;;;13.55;3.03;;;;;;;11.37;76.94;99699.44;4173356;28;20041;-68
2022/12/22 09:29:57;;;;;;;14.95;3.72;;;;;;;11.31;77.28;99702.91;4172020;28;20108;-68
2022/12/22 09:31:59;;;;;;;8.82;2.22;;;;;;;11.34;77.86;99708.13;4172619;28;20531;-69
2022/12/22 09:34:04;;;;;;;11.48;2.10;;;;;;;11.28;77.60;99708.13;4172657;28;20127;-69
2022/12/22 09:36:08;;;;;;;13.98;2.28;;;;;;;11.33;78.08;99717.66;4171709;28;20037;-68
2022/12/22 09:38:11;;;;;;;16.42;3.17;;;;;;;11.38;77.90;99699.44;4176284;28;20090;-68
2022/12/22 09:40:14;;;;;;;9.93;2.65;;;;;;;11.29;77.87;99710.72;4179390;28;20041;-68
2022/12/22 09:42:20;;;;;;;12.88;2.78;;;;;;;11.31;78.35;99715.94;4176955;28;20411;-68
2022/12/22 09:44:26;;;;;;;14.52;3.00;;;;;;;11.14;78.39;99727.22;4164058;28;20049;-69
2022/12/22 09:46:31;;;;;;;10.68;3.33;;;;;;;11.14;78.72;99729.81;4183054;28;20037;-68
2022/12/22 09:48:37;;;;;;;12.98;2.80;;;;;;;11.03;79.19;99728.94;4179816;28;20481;-69
2022/12/22 09:50:42;;;;;;;10.07;2.58;;;;;;;11.02;79.79;99732.41;4178839;28;20499;-68
2022/12/22 09:52:47;;;;;;;;;;;;;;;10.94;79.44;99740.22;4181825;28;20037;-68
2022/12/22 09:54:50;;;;;;;12.27;2.53;;;;;;;10.93;79.57;99743.66;4174542;28;19925;-69
2022/12/22 09:56:53;;;;;;;10.05;2.60;;;;;;;10.97;80.49;99749.75;4182906;28;20044;-68
2022/12/22 09:58:57;;;;;;;8.43;2.10;;;;;;;10.94;79.98;99749.75;4175883;28;20069;-69
2022/12/22 10:01:09;;;;;;;9.23;2.00;;;;;;;10.92;79.81;99756.66;4177528;28;20042;-69
2022/12/22 10:03:24;;;;;;;7.05;2.33;;;;;;;10.91;79.74;99762.75;4180622;28;20033;-68
2022/12/22 10:05:38;;;;;;;7.20;2.58;;;;;;;10.90;79.51;99758.41;4176801;28;20036;-69
2022/12/22 10:07:43;;;;;;;8.20;2.08;;;;;;;10.94;79.34;99758.41;4174957;28;20029;-69
2022/12/22 10:09:46;;;;;;;6.22;1.52;;;;;;;10.91;77.37;99770.56;4181435;28;20045;-68
2022/12/22 10:11:55;;;;;;;3.95;1.45;;;;;;;10.98;76.40;99762.75;4176934;28;20124;-68
2022/12/22 10:13:57;;;;;;;2.85;0.88;;;;;;;11.04;76.59;99761.00;4163711;28;20037;-68
2022/12/22 10:16:00;;;;;;;0.98;0.50;;;;;;;11.14;75.06;99761.03;4175934;28;20045;-68
2022/12/22 10:18:11;;;;;;;1.75;0.70;;;;;;;11.19;75.58;99753.22;4180431;28;20033;-68
2022/12/22 10:20:24;;;;;;;2.30;0.90;;;;;;;11.20;75.18;99767.97;4181557;28;20372;-68
2022/12/22 10:22:30;;;;;;;2.70;0.65;;;;;;;11.24;74.38;99772.28;4177102;28;20047;-68
2022/12/22 10:24:35;;;;;;;3.20;0.80;;;;;;;11.29;74.35;99772.31;4181159;28;20071;-69
2022/12/22 10:26:38;;;;;;;1.98;0.77;;;;;;;11.28;73.63;99781.84;4182390;28;20396;-68
2022/12/22 10:28:45;;;;;;;5.22;1.05;;;;;;;11.27;73.52;99780.13;4175241;28;20037;-68
2022/12/22 10:30:48;;;;;;;5.43;1.17;;;;;;;11.33;73.80;99774.03;4175726;28;20091;-68
2022/12/22 10:33:06;;;;;;;2.08;0.73;;;;;;;11.33;72.88;99780.13;4172011;28;20040;-69
2022/12/22 10:35:09;;;;;;;4.72;1.00;;;;;;;11.37;72.50;99785.31;4176662;28;20647;-68
2022/12/22 10:37:12;;;;;;;2.25;0.68;;;;;;;11.36;72.70;99781.88;4175877;28;20069;-68
2022/12/22 10:39:21;;;;;;;1.45;0.80;;;;;;;11.34;72.54;99796.59;4167737;28;20041;-68
2022/12/22 10:41:28;;;;;;;4.57;0.88;;;;;;;11.33;72.29;99790.53;4167700;28;20491;-68
2022/12/22 10:43:34;;;;;;;6.30;1.40;;;;;;;11.35;72.60;99780.97;4177739;28;20048;-68
2022/12/22 10:45:37;;;;;;;5.15;0.93;;;;;;;11.45;72.26;99786.19;4164526;28;20076;-68
2022/12/22 10:47:48;;;;;;;3.42;0.73;;;;;;;11.41;71.51;99782.72;4163928;28;20113;-68
2022/12/22 10:49:56;;;;;;;1.40;0.60;;;;;;;11.42;70.74;99789.66;4165748;28;20053;-68
2022/12/22 10:52:11;;;;;;;0.88;0.55;;;;;;;11.50;70.97;99798.31;4164431;28;20157;-68
2022/12/22 10:54:29;;;;;;;13.20;3.58;;;;;;;11.51;70.97;99797.47;4169978;28;20095;-68
2022/12/22 10:56:34;;;;;;;1.63;0.63;;;;;;;11.53;70.69;99800.06;4180823;28;20083;-68
2022/12/22 10:58:48;;;;;;;2.22;0.80;;;;;;;11.50;70.36;99800.91;4172545;28;20127;-68
2022/12/22 11:01:02;;;;;;;3.13;1.00;;;;;;;11.52;70.32;99801.81;4180767;28;20037;-68
2022/12/22 11:03:06;;;;;;;2.30;0.77;;;;;;;11.55;70.43;99805.25;4174316;28;20064;-68
2022/12/22 11:05:11;;;;;;;1.77;0.63;;;;;;;11.51;70.68;99820.88;4179543;28;20048;-68
2022/12/22 11:07:14;;;;;;;2.80;0.98;;;;;;;11.56;69.92;99814.81;4180738;28;20029;-68
2022/12/22 11:09:17;;;;;;;4.30;1.05;;;;;;;11.56;69.93;99823.47;4177484;28;20049;-68
2022/12/22 11:11:44;;;;;;;2.45;0.70;;;;;;;11.59;69.31;99826.09;4163904;28;20166;-68
2022/12/22 11:14:02;;;;;;;3.00;0.93;;;;;;;11.58;70.08;99829.59;4178930;28;20044;-69
2022/12/22 11:16:17;;;;;;;1.67;0.75;;;;;;;11.56;69.43;99839.09;4176503;28;20052;-69
2022/12/22 11:18:44;;;;;;;2.88;1.10;;;;;;;11.49;70.52;99843.47;4175760;28;20495;-68
2022/12/22 11:20:56;;;;;;;3.28;0.98;;;;;;;11.46;70.02;99848.66;4180417;28;20044;-68
2022/12/22 11:23:03;;;;;;;2.25;0.82;;;;;;;11.52;69.59;99851.25;4188740;28;20048;-68
2022/12/22 11:25:22;;;;;;;2.70;0.80;;;;;;;11.58;69.77;99853.00;4173965;28;20073;-68
2022/12/22 11:27:40;;;;;;;2.47;0.90;;;;;;;11.52;69.53;99859.06;4173401;28;20125;-68
2022/12/22 11:30:02;;;;;;;3.65;0.80;;;;;;;11.59;68.72;99856.47;4180265;28;20056;-69
2022/12/22 11:32:22;;;;;;;3.13;0.77;;;;;;;11.57;69.49;99866.03;4173103;28;20037;-68
2022/12/22 11:34:41;;;;;;;3.08;0.85;;;;;;;11.54;69.28;99869.50;4173991;28;20048;-68
2022/12/22 11:37:00;;;;;;;1.15;0.52;;;;;;;11.49;69.58;99873.81;4179322;28;20502;-68
2022/12/22 11:39:08;;;;;;;2.47;0.70;;;;;;;11.46;69.67;99876.41;4173135;28;20055;-69
2022/12/22 11:41:25;;;;;;;2.63;0.75;;;;;;;11.49;69.48;99868.59;4171253;28;20060;-68
2022/12/22 11:43:39;;;;;;;4.78;1.00;;;;;;;11.55;69.87;99875.56;4177559;28;20110;-69
2022/12/22 11:45:52;;;;;;;4.82;0.77;;;;;;;11.50;69.38;99873.81;4179925;28;20037;-69
2022/12/22 11:48:06;;;;;;;2.63;1.05;;;;;;;11.57;69.50;99881.66;4168664;28;20045;-68
2022/12/22 11:50:27;;;;;;;2.25;1.10;;;;;;;11.47;69.19;99889.44;4174533;28;20049;-69
2022/12/22 11:53:04;;;;;;;1.95;0.70;;;;;;;11.43;70.03;99899.84;4179113;28;20037;-67
2022/12/22 11:55:29;;;;;;;3.28;1.48;;;;;;;11.40;69.25;99890.28;4173839;28;20915;-69
2022/12/22 11:57:39;;;;;;;2.55;0.90;;;;;;;11.46;69.34;99895.53;4171986;28;20168;-68
2022/12/22 11:59:53;;;;;;;2.53;0.88;;;;;;;11.50;69.21;99905.03;4179164;28;20067;-68
2022/12/22 12:02:22;;;;;;;2.65;0.80;;;;;;;11.47;69.26;99902.44;4162985;28;20075;-69
2022/12/22 12:04:43;;;;;;;1.80;0.52;;;;;;;11.56;69.19;99906.78;4173822;28;20048;-69
2022/12/22 12:07:26;;;;;;;1.92;0.95;;;;;;;11.52;69.20;99903.34;4179472;28;20495;-69
2022/12/22 12:09:43;;;;;;;2.30;0.80;;;;;;;11.49;69.04;99907.66;4144087;28;20208;-68
2022/12/22 12:11:53;;;;;;;1.38;0.68;;;;;;;11.41;69.40;99909.38;4167616;28;20479;-68
2022/12/22 12:14:08;;;;;;;2.92;1.05;;;;;;;11.45;69.52;99924.16;4171059;28;20137;-69
2022/12/22 12:16:18;;;;;;;2.05;0.88;;;;;;;11.48;69.72;99925.00;4179309;28;20083;-69
2022/12/22 12:18:43;;;;;;;3.65;0.80;;;;;;;11.49;69.32;99925.88;4177718;28;20099;-69
2022/12/22 12:20:58;;;;;;;1.27;0.60;;;;;;;11.40;69.28;99931.91;4180599;28;20040;-68
2022/12/22 12:23:15;;;;;;;2.10;0.93;;;;;;;11.41;69.70;99933.66;4178423;28;20040;-68
2022/12/22 12:25:27;;;;;;;1.75;0.70;;;;;;;11.46;69.16;99931.97;4174989;28;20136;-68
2022/12/22 12:27:48;;;;;;;1.08;0.50;;;;;;;11.46;69.24;99934.56;4178419;28;20479;-68
2022/12/22 12:30:01;;;;;;;1.63;0.60;;;;;;;11.46;68.67;99942.38;4163061;28;20099;-68
2022/12/22 12:32:31;;;;;;;2.10;0.57;;;;;;;11.46;69.15;99942.38;4176278;28;20406;-68
2022/12/22 12:34:38;;;;;;;1.25;0.77;;;;;;;11.47;68.65;99938.88;4179076;28;20376;-68
2022/12/22 12:36:47;;;;;;;0.68;0.40;;;;;;;11.53;69.02;99944.13;4178442;28;20045;-68
2022/12/22 12:39:00;;;;;;;1.75;0.55;;;;;;;11.63;68.75;99944.13;4168257;28;20038;-69
2022/12/22 12:41:20;;;;;;;2.47;0.50;;;;;;;11.61;68.39;99951.03;4180269;28;20094;-69
2022/12/22 12:43:24;;;;;;;1.38;0.40;;;;;;;11.60;68.14;99950.19;4175290;28;20045;-69
2022/12/22 12:45:35;;;;;;;1.73;0.57;;;;;;;11.52;68.07;99952.78;4180135;28;20033;-69
2022/12/22 12:47:39;;;;;;;0.40;0.30;;;;;;;11.61;68.18;99956.25;4179389;28;20041;-68
2022/12/22 12:49:57;;;;;;;0.93;0.50;;;;;;;11.60;68.48;99959.75;4180475;28;20473;-69
2022/12/22 12:52:01;;;;;;;0.73;0.30;;;;;;;11.60;68.09;99964.97;4179336;28;20073;-69
2022/12/22 12:54:33;;;;;;;0.90;0.50;;;;;;;11.56;67.97;99965.81;4167834;28;20045;-69
2022/12/22 12:56:54;;;;;;;0.43;0.40;;;;;;;11.60;68.07;99967.56;4169033;28;20343;-69
2022/12/22 12:58:57;;;;;;;0.75;0.40;;;;;;;11.61;67.34;99970.16;4177500;28;20143;-69
2022/12/22 13:01:01;;;;;;;1.70;0.52;;;;;;;11.58;68.48;99964.06;4180267;28;20075;-69
2022/12/22 13:03:10;;;;;;;2.63;0.70;;;;;;;11.60;68.08;99967.56;4177882;28;20387;-68
2022/12/22 13:05:35;;;;;;;1.73;0.52;;;;;;;11.64;67.95;99964.97;4173370;28;20037;-68
2022/12/22 13:08:21;;;;;;;1.13;0.50;;;;;;;11.70;67.38;99977.13;4174419;28;20045;-68
2022/12/22 13:10:26;;;;;;;2.10;0.45;;;;;;;11.63;67.83;99975.38;4125910;28;20105;-69
2022/12/22 13:12:38;;;;;;;;;;;;;;;11.63;67.13;99977.97;4107842;28;20047;-68
2022/12/22 13:14:59;;;;;;;1.73;0.70;;;;;;;11.64;67.33;99977.13;4127000;28;20012;-69
2022/12/22 13:17:33;;;;;;;1.05;0.40;;;;;;;11.62;67.63;99986.66;4175783;28;20041;-69
2022/12/22 13:19:37;;;;;;;1.58;0.43;;;;;;;11.59;67.85;99990.09;4182248;28;20594;-69
2022/12/22 13:21:43;;;;;;;0.50;0.30;;;;;;;11.61;67.68;99987.50;4182414;28;20049;-69
2022/12/22 13:24:04;;;;;;;2.22;0.70;;;;;;;11.67;67.44;99992.75;4170503;28;20056;-69
2022/12/22 13:26:31;;;;;;;0.40;0.30;;;;;;;11.75;67.10;99997.97;4181978;28;20033;-69
2022/12/22 13:28:36;;;;;;;1.05;0.40;;;;;;;11.79;66.59;99991.91;4180007;28;20128;-69
2022/12/22 13:30:39;;;;;;;0.80;0.40;;;;;;;11.91;66.41;99996.25;4182008;28;20048;-69
2022/12/22 13:32:44;;;;;;;0.60;0.45;;;;;;;12.00;66.67;99991.06;4180760;28;20041;-69
2022/12/22 13:34:57;;;;;;;0.88;0.40;;;;;;;12.10;65.98;99987.59;4176508;28;20562;-68
2022/12/22 13:37:22;;;;;;;0.40;0.35;;;;;;;12.10;65.77;99992.81;4182127;28;20491;-69
2022/12/22 13:39:25;;;;;;;0.50;0.40;;;;;;;12.08;65.51;99986.75;4164468;28;20044;-69